Terminal Aerodrome Forecast
Issued by NWS

Home | Current Version | Previous Version | Text Only | Print | Product List | Glossary On
Versions: 1 2 3 4 5 6 7 8 9 10 11 12 13 14 15 16 17 18 19
000
FTAK31 PAJN 191700 RRA
TAFAJN
TAF
PAJN 191742Z 1918/2018 09011KT P6SM -SHRA FEW015 BKN035 OVC050
      TEMPO 1918/1922 11015G25KT 6SM SHRA BR BKN025
     FM200600 10008KT P6SM VCSH SCT020 OVC040
     FM201000 08004KT P6SM -RA SCT025 OVC050
     FM201500 10014KT 5SM RA BR BKN025 OVC035=

USA.gov is the U.S. government's official web portal to all federal, state and local government web resources and services.